sensor_id;sensor_type;location;lat;lon;timestamp;pressure;altitude;pressure_sealevel;temperature;humidity
56038;BME280;41907;47.848;9.000;2023-05-12T00:01:01;95449.97;;;8.36;100.00
56038;BME280;41907;47.848;9.000;2023-05-12T00:03:26;95462.06;;;8.28;100.00
56038;BME280;41907;47.848;9.000;2023-05-12T00:05:51;95451.53;;;8.37;100.00
56038;BME280;41907;47.848;9.000;2023-05-12T00:08:16;95449.53;;;8.42;100.00
56038;BME280;41907;47.848;9.000;2023-05-12T00:10:42;95443.13;;;8.43;100.00
56038;BME280;41907;47.848;9.000;2023-05-12T00:13:07;95442.47;;;8.38;100.00
56038;BME280;41907;47.848;9.000;2023-05-12T00:15:33;95437.25;;;8.33;100.00
56038;BME280;41907;47.848;9.000;2023-05-12T00:17:58;95439.13;;;8.32;100.00
56038;BME280;41907;47.848;9.000;2023-05-12T00:20:23;95445.81;;;8.30;100.00
56038;BME280;41907;47.848;9.000;2023-05-12T00:22:49;95447.78;;;8.24;100.00
56038;BME280;41907;47.848;9.000;2023-05-12T00:25:14;95443.25;;;8.25;100.00
56038;BME280;41907;47.848;9.000;2023-05-12T00:27:39;95440.09;;;8.22;100.00
56038;BME280;41907;47.848;9.000;2023-05-12T00:30:05;95440.91;;;8.23;100.00
56038;BME280;41907;47.848;9.000;2023-05-12T00:32:31;95437.09;;;8.15;100.00
56038;BME280;41907;47.848;9.000;2023-05-12T00:34:56;95440.16;;;8.09;100.00
56038;BME280;41907;47.848;9.000;2023-05-12T00:37:21;95439.00;;;8.01;100.00
56038;BME280;41907;47.848;9.000;2023-05-12T00:39:47;95441.06;;;7.91;100.00
56038;BME280;41907;47.848;9.000;2023-05-12T00:42:12;95437.34;;;7.92;100.00
56038;BME280;41907;47.848;9.000;2023-05-12T00:44:37;95436.06;;;7.75;100.00
56038;BME280;41907;47.848;9.000;2023-05-12T00:47:03;95444.22;;;7.65;100.00
56038;BME280;41907;47.848;9.000;2023-05-12T00:49:28;95443.53;;;7.60;100.00
56038;BME280;41907;47.848;9.000;2023-05-12T00:51:56;95448.75;;;7.65;100.00
56038;BME280;41907;47.848;9.000;2023-05-12T00:54:22;95445.22;;;7.69;100.00
56038;BME280;41907;47.848;9.000;2023-05-12T00:56:47;95436.56;;;7.64;100.00
56038;BME280;41907;47.848;9.000;2023-05-12T00:59:12;95439.81;;;7.61;100.00
56038;BME280;41907;47.848;9.000;2023-05-12T01:01:37;95437.66;;;7.63;100.00
56038;BME280;41907;47.848;9.000;2023-05-12T01:04:03;95434.31;;;7.71;100.00
56038;BME280;41907;47.848;9.000;2023-05-12T01:06:30;95430.56;;;7.72;100.00
56038;BME280;41907;47.848;9.000;2023-05-12T01:08:57;95433.91;;;7.64;100.00
56038;BME280;41907;47.848;9.000;2023-05-12T01:11:23;95435.66;;;7.68;100.00
56038;BME280;41907;47.848;9.000;2023-05-12T01:13:48;95439.22;;;7.64;100.00
56038;BME280;41907;47.848;9.000;2023-05-12T01:16:13;95440.31;;;7.63;100.00
56038;BME280;41907;47.848;9.000;2023-05-12T01:18:40;95430.84;;;7.57;100.00
56038;BME280;41907;47.848;9.000;2023-05-12T01:21:07;95430.47;;;7.50;100.00
56038;BME280;41907;47.848;9.000;2023-05-12T01:23:35;95434.19;;;7.48;100.00
56038;BME280;41907;47.848;9.000;2023-05-12T01:26:07;95428.50;;;7.55;100.00
56038;BME280;41907;47.848;9.000;2023-05-12T01:28:34;95428.69;;;7.59;100.00
56038;BME280;41907;47.848;9.000;2023-05-12T01:30:59;95437.53;;;7.68;100.00
56038;BME280;41907;47.848;9.000;2023-05-12T01:33:24;95429.88;;;7.66;100.00
56038;BME280;41907;47.848;9.000;2023-05-12T01:35:50;95430.16;;;7.78;100.00
56038;BME280;41907;47.848;9.000;2023-05-12T01:38:15;95432.81;;;7.92;100.00
56038;BME280;41907;47.848;9.000;2023-05-12T01:40:40;95421.41;;;7.92;100.00
56038;BME280;41907;47.848;9.000;2023-05-12T01:43:05;95433.09;;;7.91;100.00
56038;BME280;41907;47.848;9.000;2023-05-12T01:45:31;95428.66;;;7.86;100.00
56038;BME280;41907;47.848;9.000;2023-05-12T01:47:57;95432.59;;;7.89;100.00
56038;BME280;41907;47.848;9.000;2023-05-12T01:50:22;95435.47;;;7.92;100.00
56038;BME280;41907;47.848;9.000;2023-05-12T01:52:47;95430.53;;;7.99;100.00
56038;BME280;41907;47.848;9.000;2023-05-12T01:55:13;95434.66;;;8.05;100.00
56038;BME280;41907;47.848;9.000;2023-05-12T01:57:38;95436.28;;;8.15;100.00
56038;BME280;41907;47.848;9.000;2023-05-12T02:00:03;95434.63;;;8.19;100.00
56038;BME280;41907;47.848;9.000;2023-05-12T02:02:28;95435.41;;;8.19;100.00
56038;BME280;41907;47.848;9.000;2023-05-12T02:04:55;95429.41;;;8.14;100.00
56038;BME280;41907;47.848;9.000;2023-05-12T02:07:20;95436.28;;;8.15;100.00
56038;BME280;41907;47.848;9.000;2023-05-12T02:09:45;95436.19;;;8.20;100.00
56038;BME280;41907;47.848;9.000;2023-05-12T02:12:11;95428.31;;;8.15;100.00
56038;BME280;41907;47.848;9.000;2023-05-12T02:14:36;95435.22;;;8.16;100.00
56038;BME280;41907;47.848;9.000;2023-05-12T02:17:01;95432.69;;;8.11;100.00
56038;BME280;41907;47.848;9.000;2023-05-12T02:19:28;95431.78;;;8.15;100.00
56038;BME280;41907;47.848;9.000;2023-05-12T02:21:53;95427.53;;;8.14;100.00
56038;BME280;41907;47.848;9.000;2023-05-12T02:24:18;95430.31;;;8.09;100.00
56038;BME280;41907;47.848;9.000;2023-05-12T02:26:45;95440.25;;;8.04;100.00
56038;BME280;41907;47.848;9.000;2023-05-12T02:29:10;95434.06;;;7.95;100.00
56038;BME280;41907;47.848;9.000;2023-05-12T02:31:36;95439.19;;;7.91;100.00
56038;BME280;41907;47.848;9.000;2023-05-12T02:34:01;95427.00;;;7.90;100.00
56038;BME280;41907;47.848;9.000;2023-05-12T02:36:27;95432.53;;;7.80;100.00
56038;BME280;41907;47.848;9.000;2023-05-12T02:38:52;95436.47;;;7.82;100.00
56038;BME280;41907;47.848;9.000;2023-05-12T02:41:18;95428.38;;;7.88;100.00
56038;BME280;41907;47.848;9.000;2023-05-12T02:43:43;95430.84;;;7.84;100.00
56038;BME280;41907;47.848;9.000;2023-05-12T02:46:08;95430.38;;;7.82;100.00
56038;BME280;41907;47.848;9.000;2023-05-12T02:48:33;95428.50;;;7.82;100.00
56038;BME280;41907;47.848;9.000;2023-05-12T02:50:58;95422.06;;;7.83;100.00
56038;BME280;41907;47.848;9.000;2023-05-12T02:53:24;95418.53;;;7.88;100.00
56038;BME280;41907;47.848;9.000;2023-05-12T02:55:50;95418.91;;;7.95;100.00
56038;BME280;41907;47.848;9.000;2023-05-12T02:58:15;95422.66;;;7.94;100.00
56038;BME280;41907;47.848;9.000;2023-05-12T03:00:40;95416.56;;;7.94;100.00
56038;BME280;41907;47.848;9.000;2023-05-12T03:03:06;95422.94;;;7.93;100.00
56038;BME280;41907;47.848;9.000;2023-05-12T03:05:31;95415.88;;;7.88;100.00
56038;BME280;41907;47.848;9.000;2023-05-12T03:07:57;95422.00;;;7.89;100.00
56038;BME280;41907;47.848;9.000;2023-05-12T03:10:23;95412.56;;;7.82;100.00
56038;BME280;41907;47.848;9.000;2023-05-12T03:12:48;95416.88;;;7.65;100.00
56038;BME280;41907;47.848;9.000;2023-05-12T03:15:13;95417.78;;;7.60;100.00
56038;BME280;41907;47.848;9.000;2023-05-12T03:17:38;95416.31;;;7.54;100.00
56038;BME280;41907;47.848;9.000;2023-05-12T03:20:04;95414.03;;;7.47;100.00
56038;BME280;41907;47.848;9.000;2023-05-12T03:22:29;95406.97;;;7.43;100.00
56038;BME280;41907;47.848;9.000;2023-05-12T03:24:55;95420.75;;;7.45;100.00
56038;BME280;41907;47.848;9.000;2023-05-12T03:27:20;95414.94;;;7.43;100.00
56038;BME280;41907;47.848;9.000;2023-05-12T03:29:45;95415.13;;;7.46;100.00
56038;BME280;41907;47.848;9.000;2023-05-12T03:32:11;95415.84;;;7.52;100.00
56038;BME280;41907;47.848;9.000;2023-05-12T03:34:36;95420.34;;;7.52;100.00
56038;BME280;41907;47.848;9.000;2023-05-12T03:37:01;95415.72;;;7.57;100.00
56038;BME280;41907;47.848;9.000;2023-05-12T03:39:26;95416.41;;;7.49;100.00
56038;BME280;41907;47.848;9.000;2023-05-12T03:41:52;95422.91;;;7.43;100.00
56038;BME280;41907;47.848;9.000;2023-05-12T03:44:17;95423.41;;;7.45;100.00
56038;BME280;41907;47.848;9.000;2023-05-12T03:46:42;95428.59;;;7.50;100.00
56038;BME280;41907;47.848;9.000;2023-05-12T03:49:07;95429.59;;;7.54;100.00
56038;BME280;41907;47.848;9.000;2023-05-12T03:51:33;95433.72;;;7.60;100.00
56038;BME280;41907;47.848;9.000;2023-05-12T03:53:59;95415.13;;;7.60;100.00
56038;BME280;41907;47.848;9.000;2023-05-12T03:56:24;95421.63;;;7.54;100.00
56038;BME280;41907;47.848;9.000;2023-05-12T03:58:49;95416.69;;;7.47;100.00
56038;BME280;41907;47.848;9.000;2023-05-12T04:01:14;95421.50;;;7.45;100.00
56038;BME280;41907;47.848;9.000;2023-05-12T04:03:40;95415.44;;;7.45;100.00
56038;BME280;41907;47.848;9.000;2023-05-12T04:06:05;95421.50;;;7.45;100.00
56038;BME280;41907;47.848;9.000;2023-05-12T04:08:30;95414.66;;;7.44;100.00
56038;BME280;41907;47.848;9.000;2023-05-12T04:10:56;95416.88;;;7.37;100.00
56038;BME280;41907;47.848;9.000;2023-05-12T04:13:22;95413.38;;;7.42;100.00
56038;BME280;41907;47.848;9.000;2023-05-12T04:15:48;95415.91;;;7.47;100.00
56038;BME280;41907;47.848;9.000;2023-05-12T04:18:14;95413.19;;;7.52;100.00
56038;BME280;41907;47.848;9.000;2023-05-12T04:20:39;95415.22;;;7.55;100.00
56038;BME280;41907;47.848;9.000;2023-05-12T04:23:04;95421.91;;;7.66;100.00
56038;BME280;41907;47.848;9.000;2023-05-12T04:25:30;95413.66;;;7.68;100.00
56038;BME280;41907;47.848;9.000;2023-05-12T04:27:55;95418.09;;;7.72;100.00
56038;BME280;41907;47.848;9.000;2023-05-12T04:30:20;95422.78;;;7.75;100.00
56038;BME280;41907;47.848;9.000;2023-05-12T04:32:46;95426.63;;;7.69;100.00
56038;BME280;41907;47.848;9.000;2023-05-12T04:35:12;95424.47;;;7.71;100.00
56038;BME280;41907;47.848;9.000;2023-05-12T04:37:37;95426.03;;;7.72;100.00
56038;BME280;41907;47.848;9.000;2023-05-12T04:40:03;95435.69;;;7.55;100.00
56038;BME280;41907;47.848;9.000;2023-05-12T04:42:28;95445.78;;;7.66;100.00
56038;BME280;41907;47.848;9.000;2023-05-12T04:44:53;95445.41;;;7.73;100.00
56038;BME280;41907;47.848;9.000;2023-05-12T04:47:19;95439.19;;;7.77;100.00
56038;BME280;41907;47.848;9.000;2023-05-12T04:49:44;95442.34;;;7.66;100.00
56038;BME280;41907;47.848;9.000;2023-05-12T04:52:09;95449.22;;;7.67;100.00
56038;BME280;41907;47.848;9.000;2023-05-12T04:54:34;95448.03;;;7.87;100.00
56038;BME280;41907;47.848;9.000;2023-05-12T04:57:00;95447.72;;;8.15;100.00
56038;BME280;41907;47.848;9.000;2023-05-12T04:59:25;95452.97;;;8.43;100.00
56038;BME280;41907;47.848;9.000;2023-05-12T05:01:50;95446.31;;;8.68;100.00
56038;BME280;41907;47.848;9.000;2023-05-12T05:04:15;95446.63;;;9.19;100.00
56038;BME280;41907;47.848;9.000;2023-05-12T05:06:41;95444.00;;;9.59;100.00
56038;BME280;41907;47.848;9.000;2023-05-12T05:09:06;95449.97;;;9.73;100.00
56038;BME280;41907;47.848;9.000;2023-05-12T05:11:31;95452.81;;;10.42;100.00
56038;BME280;41907;47.848;9.000;2023-05-12T05:13:56;95451.16;;;11.82;100.00
56038;BME280;41907;47.848;9.000;2023-05-12T05:16:22;95457.34;;;13.86;95.90
56038;BME280;41907;47.848;9.000;2023-05-12T05:18:47;95456.78;;;15.37;82.88
56038;BME280;41907;47.848;9.000;2023-05-12T05:21:13;95464.63;;;16.71;72.25
56038;BME280;41907;47.848;9.000;2023-05-12T05:23:38;95463.28;;;15.63;72.68
56038;BME280;41907;47.848;9.000;2023-05-12T05:26:03;95466.91;;;15.55;72.45
56038;BME280;41907;47.848;9.000;2023-05-12T05:28:29;95468.75;;;14.43;78.68
56038;BME280;41907;47.848;9.000;2023-05-12T05:30:54;95464.03;;;13.79;81.53
56038;BME280;41907;47.848;9.000;2023-05-12T05:33:20;95466.72;;;13.92;80.49
56038;BME280;41907;47.848;9.000;2023-05-12T05:35:45;95467.72;;;13.75;84.48
56038;BME280;41907;47.848;9.000;2023-05-12T05:38:11;95464.94;;;14.84;80.69
56038;BME280;41907;47.848;9.000;2023-05-12T05:40:37;95467.28;;;15.42;73.96
56038;BME280;41907;47.848;9.000;2023-05-12T05:43:02;95471.13;;;17.05;66.17
56038;BME280;41907;47.848;9.000;2023-05-12T05:45:27;95467.72;;;18.15;60.65
56038;BME280;41907;47.848;9.000;2023-05-12T05:47:52;95472.63;;;17.87;61.24
56038;BME280;41907;47.848;9.000;2023-05-12T05:50:17;95471.00;;;18.05;60.37
56038;BME280;41907;47.848;9.000;2023-05-12T05:52:43;95478.19;;;16.94;64.34
56038;BME280;41907;47.848;9.000;2023-05-12T05:55:08;95468.53;;;16.73;65.10
56038;BME280;41907;47.848;9.000;2023-05-12T05:57:33;95469.53;;;17.42;65.70
56038;BME280;41907;47.848;9.000;2023-05-12T05:59:58;95471.91;;;17.67;61.86
56038;BME280;41907;47.848;9.000;2023-05-12T06:02:24;95474.44;;;18.02;61.53
56038;BME280;41907;47.848;9.000;2023-05-12T06:04:49;95475.34;;;18.09;61.12
56038;BME280;41907;47.848;9.000;2023-05-12T06:07:16;95470.53;;;19.38;56.94
56038;BME280;41907;47.848;9.000;2023-05-12T06:09:41;95475.44;;;18.16;58.88
56038;BME280;41907;47.848;9.000;2023-05-12T06:12:06;95474.03;;;17.58;61.53
56038;BME280;41907;47.848;9.000;2023-05-12T06:14:32;95473.59;;;17.14;63.86
56038;BME280;41907;47.848;9.000;2023-05-12T06:16:57;95480.81;;;16.90;65.78
56038;BME280;41907;47.848;9.000;2023-05-12T06:19:22;95475.22;;;18.02;60.92
56038;BME280;41907;47.848;9.000;2023-05-12T06:21:47;95479.34;;;20.05;54.97
56038;BME280;41907;47.848;9.000;2023-05-12T06:24:13;95483.31;;;20.66;51.44
56038;BME280;41907;47.848;9.000;2023-05-12T06:26:38;95483.31;;;21.46;48.92
56038;BME280;41907;47.848;9.000;2023-05-12T06:29:05;95486.22;;;21.05;48.95
56038;BME280;41907;47.848;9.000;2023-05-12T06:31:30;95487.28;;;20.83;50.09
56038;BME280;41907;47.848;9.000;2023-05-12T06:33:55;95481.53;;;22.35;47.75
56038;BME280;41907;47.848;9.000;2023-05-12T06:36:20;95484.13;;;23.13;44.70
56038;BME280;41907;47.848;9.000;2023-05-12T06:38:46;95492.91;;;23.56;43.01
56038;BME280;41907;47.848;9.000;2023-05-12T06:41:11;95495.31;;;23.33;41.97
56038;BME280;41907;47.848;9.000;2023-05-12T06:43:37;95492.38;;;22.56;44.40
56038;BME280;41907;47.848;9.000;2023-05-12T06:46:02;95494.88;;;23.56;42.73
56038;BME280;41907;47.848;9.000;2023-05-12T06:48:27;95497.13;;;24.30;40.62
56038;BME280;41907;47.848;9.000;2023-05-12T06:50:52;95492.31;;;23.93;42.27
56038;BME280;41907;47.848;9.000;2023-05-12T06:53:17;95501.13;;;23.49;42.69
56038;BME280;41907;47.848;9.000;2023-05-12T06:55:43;95505.00;;;24.21;41.92
56038;BME280;41907;47.848;9.000;2023-05-12T06:58:10;95500.03;;;23.15;43.12
56038;BME280;41907;47.848;9.000;2023-05-12T07:00:35;95501.59;;;23.16;44.10
56038;BME280;41907;47.848;9.000;2023-05-12T07:03:00;95493.09;;;22.99;43.75
56038;BME280;41907;47.848;9.000;2023-05-12T07:05:26;95497.72;;;23.17;44.24
56038;BME280;41907;47.848;9.000;2023-05-12T07:07:51;95496.59;;;21.90;47.47
56038;BME280;41907;47.848;9.000;2023-05-12T07:10:16;95500.94;;;22.26;48.10
56038;BME280;41907;47.848;9.000;2023-05-12T07:12:42;95498.75;;;23.51;44.70
56038;BME280;41907;47.848;9.000;2023-05-12T07:15:07;95493.69;;;23.53;44.96
56038;BME280;41907;47.848;9.000;2023-05-12T07:17:33;95491.72;;;24.20;46.02
56038;BME280;41907;47.848;9.000;2023-05-12T07:19:58;95481.53;;;23.72;44.67
56038;BME280;41907;47.848;9.000;2023-05-12T07:22:23;95484.53;;;23.92;44.35
56038;BME280;41907;47.848;9.000;2023-05-12T07:24:48;95483.38;;;23.93;41.85
56038;BME280;41907;47.848;9.000;2023-05-12T07:27:14;95488.94;;;23.71;45.01
56038;BME280;41907;47.848;9.000;2023-05-12T07:29:39;95475.25;;;23.86;45.38
56038;BME280;41907;47.848;9.000;2023-05-12T07:32:05;95483.22;;;23.48;45.81
56038;BME280;41907;47.848;9.000;2023-05-12T07:34:30;95490.59;;;23.44;48.20
56038;BME280;41907;47.848;9.000;2023-05-12T07:36:56;95479.09;;;23.88;45.90
56038;BME280;41907;47.848;9.000;2023-05-12T07:39:21;95491.03;;;23.32;42.50
56038;BME280;41907;47.848;9.000;2023-05-12T07:41:48;95488.47;;;22.75;47.19
56038;BME280;41907;47.848;9.000;2023-05-12T07:44:13;95488.88;;;22.74;45.42
56038;BME280;41907;47.848;9.000;2023-05-12T07:46:39;95488.88;;;22.77;46.48
56038;BME280;41907;47.848;9.000;2023-05-12T07:49:04;95480.97;;;23.25;45.25
56038;BME280;41907;47.848;9.000;2023-05-12T07:51:30;95474.09;;;22.92;44.08
56038;BME280;41907;47.848;9.000;2023-05-12T07:53:56;95475.31;;;22.45;46.46
56038;BME280;41907;47.848;9.000;2023-05-12T07:56:22;95476.38;;;21.56;48.40
56038;BME280;41907;47.848;9.000;2023-05-12T07:58:47;95479.41;;;21.43;50.73
56038;BME280;41907;47.848;9.000;2023-05-12T08:01:12;95478.66;;;21.43;51.69
56038;BME280;41907;47.848;9.000;2023-05-12T08:03:37;95484.13;;;20.74;51.89
56038;BME280;41907;47.848;9.000;2023-05-12T08:06:03;95475.88;;;19.64;56.31
56038;BME280;41907;47.848;9.000;2023-05-12T08:08:31;95478.97;;;20.55;55.63
56038;BME280;41907;47.848;9.000;2023-05-12T08:10:56;95480.59;;;19.75;55.73
56038;BME280;41907;47.848;9.000;2023-05-12T08:13:21;95483.94;;;18.94;60.02
56038;BME280;41907;47.848;9.000;2023-05-12T08:15:48;95479.72;;;18.97;60.66
56038;BME280;41907;47.848;9.000;2023-05-12T08:18:13;95474.53;;;19.48;59.90
56038;BME280;41907;47.848;9.000;2023-05-12T08:20:39;95467.53;;;19.80;59.18
56038;BME280;41907;47.848;9.000;2023-05-12T08:23:04;95473.22;;;20.67;56.98
56038;BME280;41907;47.848;9.000;2023-05-12T08:25:29;95469.16;;;19.92;56.75
56038;BME280;41907;47.848;9.000;2023-05-12T08:27:55;95467.13;;;19.45;55.89
56038;BME280;41907;47.848;9.000;2023-05-12T08:30:21;95466.50;;;19.21;57.21
56038;BME280;41907;47.848;9.000;2023-05-12T08:32:46;95469.97;;;19.96;55.66
56038;BME280;41907;47.848;9.000;2023-05-12T08:35:12;95468.28;;;20.25;55.32
56038;BME280;41907;47.848;9.000;2023-05-12T08:37:37;95469.13;;;20.98;52.09
56038;BME280;41907;47.848;9.000;2023-05-12T08:40:03;95469.19;;;20.36;53.50
56038;BME280;41907;47.848;9.000;2023-05-12T08:42:42;95465.63;;;20.32;54.96
56038;BME280;41907;47.848;9.000;2023-05-12T08:45:08;95461.06;;;21.08;53.44
56038;BME280;41907;47.848;9.000;2023-05-12T08:47:34;95463.31;;;20.34;54.99
56038;BME280;41907;47.848;9.000;2023-05-12T08:50:02;95466.31;;;20.76;56.23
56038;BME280;41907;47.848;9.000;2023-05-12T08:52:28;95468.41;;;21.08;53.07
56038;BME280;41907;47.848;9.000;2023-05-12T08:54:53;95468.44;;;20.42;52.80
56038;BME280;41907;47.848;9.000;2023-05-12T08:57:19;95467.28;;;19.96;52.78
56038;BME280;41907;47.848;9.000;2023-05-12T08:59:45;95467.44;;;19.69;54.53
56038;BME280;41907;47.848;9.000;2023-05-12T09:02:11;95470.22;;;19.43;53.97
56038;BME280;41907;47.848;9.000;2023-05-12T09:04:37;95467.31;;;20.03;52.21
56038;BME280;41907;47.848;9.000;2023-05-12T09:07:03;95469.78;;;19.75;52.46
56038;BME280;41907;47.848;9.000;2023-05-12T09:09:30;95461.72;;;19.82;52.68
56038;BME280;41907;47.848;9.000;2023-05-12T09:11:56;95461.91;;;20.03;57.08
56038;BME280;41907;47.848;9.000;2023-05-12T09:14:24;95462.59;;;21.06;58.10
56038;BME280;41907;47.848;9.000;2023-05-12T09:16:50;95462.78;;;21.48;52.79
56038;BME280;41907;47.848;9.000;2023-05-12T09:19:18;95464.81;;;21.87;50.39
56038;BME280;41907;47.848;9.000;2023-05-12T09:21:44;95463.75;;;20.39;49.07
56038;BME280;41907;47.848;9.000;2023-05-12T09:24:09;95466.78;;;20.31;48.83
56038;BME280;41907;47.848;9.000;2023-05-12T09:26:47;95461.06;;;20.39;50.42
56038;BME280;41907;47.848;9.000;2023-05-12T09:29:13;95463.50;;;19.30;54.01
56038;BME280;41907;47.848;9.000;2023-05-12T09:31:38;95462.56;;;19.49;51.14
56038;BME280;41907;47.848;9.000;2023-05-12T09:34:12;95454.72;;;19.40;53.18
56038;BME280;41907;47.848;9.000;2023-05-12T09:36:37;95460.19;;;19.44;48.49
56038;BME280;41907;47.848;9.000;2023-05-12T09:39:03;95467.78;;;19.01;51.55
56038;BME280;41907;47.848;9.000;2023-05-12T09:41:30;95458.13;;;19.33;49.82
56038;BME280;41907;47.848;9.000;2023-05-12T09:43:55;95444.78;;;19.14;52.67
56038;BME280;41907;47.848;9.000;2023-05-12T09:46:21;95453.75;;;19.55;50.53
56038;BME280;41907;47.848;9.000;2023-05-12T09:48:47;95448.22;;;19.11;50.01
56038;BME280;41907;47.848;9.000;2023-05-12T09:51:15;95455.78;;;18.99;50.41
56038;BME280;41907;47.848;9.000;2023-05-12T09:53:41;95447.81;;;19.80;49.31
56038;BME280;41907;47.848;9.000;2023-05-12T09:56:14;95448.47;;;20.14;48.13
56038;BME280;41907;47.848;9.000;2023-05-12T09:58:43;95441.72;;;19.93;47.91
56038;BME280;41907;47.848;9.000;2023-05-12T10:01:12;95446.25;;;19.79;47.69
56038;BME280;41907;47.848;9.000;2023-05-12T10:03:38;95443.38;;;19.27;48.27
56038;BME280;41907;47.848;9.000;2023-05-12T10:06:05;95439.91;;;18.93;49.53
56038;BME280;41907;47.848;9.000;2023-05-12T10:08:33;95441.31;;;17.59;52.95
56038;BME280;41907;47.848;9.000;2023-05-12T10:10:58;95447.47;;;17.18;55.59
56038;BME280;41907;47.848;9.000;2023-05-12T10:13:25;95435.84;;;17.33;55.71
56038;BME280;41907;47.848;9.000;2023-05-12T10:15:51;95438.59;;;18.28;53.37
56038;BME280;41907;47.848;9.000;2023-05-12T10:18:18;95437.22;;;18.41;52.79
56038;BME280;41907;47.848;9.000;2023-05-12T10:20:44;95430.56;;;17.40;58.04
56038;BME280;41907;47.848;9.000;2023-05-12T10:23:11;95437.69;;;17.94;54.76
56038;BME280;41907;47.848;9.000;2023-05-12T10:25:38;95438.97;;;18.03;54.85
56038;BME280;41907;47.848;9.000;2023-05-12T10:28:04;95445.44;;;17.72;56.67
56038;BME280;41907;47.848;9.000;2023-05-12T10:30:29;95433.09;;;17.71;55.50
56038;BME280;41907;47.848;9.000;2023-05-12T10:32:55;95429.19;;;17.27;56.72
56038;BME280;41907;47.848;9.000;2023-05-12T10:35:29;95427.94;;;17.43;57.93
56038;BME280;41907;47.848;9.000;2023-05-12T10:37:55;95435.94;;;17.59;56.35
56038;BME280;41907;47.848;9.000;2023-05-12T10:40:24;95437.84;;;18.04;59.34
56038;BME280;41907;47.848;9.000;2023-05-12T10:42:50;95433.03;;;17.48;58.67
56038;BME280;41907;47.848;9.000;2023-05-12T10:45:17;95435.06;;;17.55;58.58
56038;BME280;41907;47.848;9.000;2023-05-12T10:47:44;95433.09;;;17.52;58.45
56038;BME280;41907;47.848;9.000;2023-05-12T10:50:09;95429.75;;;18.31;60.61
56038;BME280;41907;47.848;9.000;2023-05-12T10:52:38;95429.22;;;19.04;55.34
56038;BME280;41907;47.848;9.000;2023-05-12T10:55:04;95436.88;;;18.99;53.99
56038;BME280;41907;47.848;9.000;2023-05-12T10:57:30;95421.19;;;18.25;55.73
56038;BME280;41907;47.848;9.000;2023-05-12T10:59:56;95428.22;;;17.38;60.50
56038;BME280;41907;47.848;9.000;2023-05-12T11:02:24;95434.44;;;16.81;62.34
56038;BME280;41907;47.848;9.000;2023-05-12T11:04:54;95442.97;;;16.48;63.10
56038;BME280;41907;47.848;9.000;2023-05-12T11:07:22;95438.38;;;16.33;66.79
56038;BME280;41907;47.848;9.000;2023-05-12T11:09:48;95441.03;;;15.51;68.36
56038;BME280;41907;47.848;9.000;2023-05-12T11:12:13;95438.34;;;15.07;72.64
56038;BME280;41907;47.848;9.000;2023-05-12T11:14:40;95442.19;;;15.22;72.53
56038;BME280;41907;47.848;9.000;2023-05-12T11:17:05;95443.88;;;14.99;74.16
56038;BME280;41907;47.848;9.000;2023-05-12T11:19:31;95446.59;;;14.46;78.40
56038;BME280;41907;47.848;9.000;2023-05-12T11:22:02;95431.06;;;14.52;79.18
56038;BME280;41907;47.848;9.000;2023-05-12T11:24:28;95434.72;;;14.60;77.92
56038;BME280;41907;47.848;9.000;2023-05-12T11:26:53;95440.84;;;15.00;78.61
56038;BME280;41907;47.848;9.000;2023-05-12T11:29:20;95440.63;;;15.65;77.80
56038;BME280;41907;47.848;9.000;2023-05-12T11:31:46;95441.34;;;15.34;76.36
56038;BME280;41907;47.848;9.000;2023-05-12T11:34:12;95443.06;;;15.54;75.54
56038;BME280;41907;47.848;9.000;2023-05-12T11:36:38;95437.50;;;15.78;73.00
56038;BME280;41907;47.848;9.000;2023-05-12T11:39:04;95444.34;;;16.42;70.08
56038;BME280;41907;47.848;9.000;2023-05-12T11:41:30;95442.72;;;16.37;69.40
56038;BME280;41907;47.848;9.000;2023-05-12T11:43:55;95427.13;;;16.62;68.52
56038;BME280;41907;47.848;9.000;2023-05-12T11:46:27;95429.78;;;16.43;66.44
56038;BME280;41907;47.848;9.000;2023-05-12T11:48:58;95419.41;;;16.26;68.49
56038;BME280;41907;47.848;9.000;2023-05-12T11:51:24;95431.81;;;16.30;67.18
56038;BME280;41907;47.848;9.000;2023-05-12T11:53:53;95426.22;;;16.74;65.84
56038;BME280;41907;47.848;9.000;2023-05-12T11:56:19;95424.50;;;17.24;63.49
56038;BME280;41907;47.848;9.000;2023-05-12T11:58:54;95418.03;;;17.28;64.87
56038;BME280;41907;47.848;9.000;2023-05-12T12:01:20;95412.63;;;17.93;63.24
56038;BME280;41907;47.848;9.000;2023-05-12T12:03:46;95420.31;;;18.17;60.62
56038;BME280;41907;47.848;9.000;2023-05-12T12:06:14;95415.88;;;18.29;61.99
56038;BME280;41907;47.848;9.000;2023-05-12T12:08:53;95425.97;;;17.82;60.82
56038;BME280;41907;47.848;9.000;2023-05-12T12:11:19;95418.19;;;17.58;59.90
56038;BME280;41907;47.848;9.000;2023-05-12T12:13:46;95427.66;;;17.06;64.36
56038;BME280;41907;47.848;9.000;2023-05-12T12:16:13;95433.81;;;16.68;64.40
56038;BME280;41907;47.848;9.000;2023-05-12T12:18:38;95438.84;;;16.54;64.05
56038;BME280;41907;47.848;9.000;2023-05-12T12:21:03;95441.31;;;16.44;66.35
56038;BME280;41907;47.848;9.000;2023-05-12T12:23:29;95444.16;;;16.16;66.94
56038;BME280;41907;47.848;9.000;2023-05-12T12:25:54;95438.75;;;15.37;70.80
56038;BME280;41907;47.848;9.000;2023-05-12T12:28:19;95444.06;;;15.06;73.06
56038;BME280;41907;47.848;9.000;2023-05-12T12:30:44;95431.91;;;14.96;75.42
56038;BME280;41907;47.848;9.000;2023-05-12T12:33:10;95440.44;;;15.14;72.55
56038;BME280;41907;47.848;9.000;2023-05-12T12:35:35;95441.84;;;15.23;74.40
56038;BME280;41907;47.848;9.000;2023-05-12T12:38:00;95441.00;;;15.35;73.18
56038;BME280;41907;47.848;9.000;2023-05-12T12:40:26;95445.72;;;15.10;73.00
56038;BME280;41907;47.848;9.000;2023-05-12T12:42:51;95441.94;;;15.27;72.64
56038;BME280;41907;47.848;9.000;2023-05-12T12:45:17;95437.53;;;15.35;72.81
56038;BME280;41907;47.848;9.000;2023-05-12T12:47:42;95439.97;;;15.40;71.10
56038;BME280;41907;47.848;9.000;2023-05-12T12:50:08;95432.03;;;15.59;71.87
56038;BME280;41907;47.848;9.000;2023-05-12T12:52:34;95443.13;;;15.89;71.83